Time;durP1;ratioP1;P1;durP2;ratioP2;P2;SDS_P1;SDS_P2;PMS_P1;PMS_P2;Temp;Humidity;BMP_temperature;BMP_pressure;BME280_temperature;BME280_humidity;BME280_pressure;Samples;Min_cycle;Max_cycle;Signal;HPM_P1;HPM_P2
2022/11/17 00:01:02;;;;;;;;;;;;;;;;;;5003251;28;20078;-61
2022/11/17 00:03:27;;;;;;;;;;;;;;;;;;4998066;28;19921;-61
2022/11/17 00:05:55;;;;;;;;;;;;;;;;;;4986459;28;19936;-59
2022/11/17 00:08:20;;;;;;;;;;;;;;;;;;4962122;28;20343;-64
2022/11/17 00:10:48;;;;;;;;;;;;;;;;;;5004601;28;20020;-64
2022/11/17 00:16:02;;;;;;;;;;;;;;;;;;4999290;28;20377;-62
2022/11/17 00:21:22;;;;;;;;;;;;;;;;;;5001932;28;19925;-64
2022/11/17 00:23:50;;;;;;;;;;;;;;;;;;4983752;28;20324;-65
2022/11/17 00:26:15;;;;;;;;;;;;;;;;;;4980071;28;20521;-59
2022/11/17 00:28:41;;;;;;;;;;;;;;;;;;4982421;28;19943;-66
2022/11/17 00:34:05;;;;;;;;;;;;;;;;;;4978067;28;20236;-60
2022/11/17 00:36:32;;;;;;;;;;;;;;;;;;5001693;28;20066;-61
2022/11/17 00:39:00;;;;;;;;;;;;;;;;;;4983279;28;21819;-59
2022/11/17 00:41:26;;;;;;;;;;;;;;;;;;5000996;28;19921;-61
2022/11/17 00:43:54;;;;;;;;;;;;;;;;;;4998943;28;20448;-61
2022/11/17 00:46:19;;;;;;;;;;;;;;;;;;4967158;28;19921;-63
2022/11/17 00:48:47;;;;;;;;;;;;;;;;;;4999293;28;20383;-60
2022/11/17 00:51:13;;;;;;;;;;;;;;;;;;4984142;28;19925;-64
2022/11/17 00:53:39;;;;;;;;;;;;;;;;;;4996642;28;19921;-60
2022/11/17 00:56:07;;;;;;;;;;;;;;;;;;5001217;28;19947;-59
2022/11/17 00:58:35;;;;;;;;;;;;;;;;;;4985046;28;20040;-63
2022/11/17 01:01:03;;;;;;;;;;;;;;;;;;4976599;28;19923;-61
2022/11/17 01:03:28;;;;;;;;;;;;;;;;;;4972586;28;19917;-62
2022/11/17 01:05:55;;;;;;;;;;;;;;;;;;4982458;28;19920;-61
2022/11/17 01:08:23;;;;;;;;;;;;;;;;;;4981526;28;19925;-60
2022/11/17 01:10:48;;;;;;;;;;;;;;;;;;4984495;28;20353;-60
2022/11/17 01:13:14;;;;;;;;;;;;;;;;;;5001927;28;20632;-64
2022/11/17 01:15:39;;;;;;;;;;;;;;;;;;4980549;28;19917;-59
2022/11/17 01:18:04;;;;;;;;;;;;;;;;;;4982277;28;19941;-61
2022/11/17 01:20:30;;;;;;;;;;;;;;;;;;4983771;28;19964;-63
2022/11/17 01:22:55;;;;;;;;;;;;;;;;;;4981789;28;19928;-63
2022/11/17 01:25:20;;;;;;;;;;;;;;;;;;4983572;28;20557;-62
2022/11/17 01:27:45;;;;;;;;;;;;;;;;;;4967440;28;20373;-61
2022/11/17 01:30:11;;;;;;;;;;;;;;;;;;4981881;28;20540;-61
2022/11/17 01:32:39;;;;;;;;;;;;;;;;;;4975317;28;20559;-62
2022/11/17 01:35:04;;;;;;;;;;;;;;;;;;4993371;28;20061;-64
2022/11/17 01:37:29;;;;;;;;;;;;;;;;;;4978365;28;19925;-63
2022/11/17 01:39:55;;;;;;;;;;;;;;;;;;5000969;28;19917;-60
2022/11/17 01:42:20;;;;;;;;;;;;;;;;;;4981521;28;19963;-63
2022/11/17 01:44:47;;;;;;;;;;;;;;;;;;4982033;28;20277;-60
2022/11/17 01:47:13;;;;;;;;;;;;;;;;;;4982170;28;20428;-60
2022/11/17 01:49:41;;;;;;;;;;;;;;;;;;5002149;28;19917;-60
2022/11/17 01:52:06;;;;;;;;;;;;;;;;;;4980251;28;19927;-60
2022/11/17 01:54:36;;;;;;;;;;;;;;;;;;4976761;28;19926;-62
2022/11/17 01:57:01;;;;;;;;;;;;;;;;;;4975995;28;20516;-59
2022/11/17 01:59:27;;;;;;;;;;;;;;;;;;4979346;28;19947;-60
2022/11/17 02:01:55;;;;;;;;;;;;;;;;;;4975950;28;19917;-61
2022/11/17 02:04:23;;;;;;;;;;;;;;;;;;4997248;28;19929;-61
2022/11/17 02:06:48;;;;;;;;;;;;;;;;;;5003324;28;20148;-61
2022/11/17 02:09:16;;;;;;;;;;;;;;;;;;4970165;28;19931;-61
2022/11/17 02:11:44;;;;;;;;;;;;;;;;;;4971061;28;19996;-61
2022/11/17 02:14:11;;;;;;;;;;;;;;;;;;5005386;28;19925;-61
2022/11/17 02:16:36;;;;;;;;;;;;;;;;;;5001680;28;20890;-60
2022/11/17 02:19:02;;;;;;;;;;;;;;;;;;4966331;28;20202;-62
2022/11/17 02:21:37;;;;;;;;;;;;;;;;;;;;;
2022/11/17 02:24:20;;;;;;;;;;;;;;;;;;4981101;28;19922;-60
2022/11/17 02:26:46;;;;;;;;;;;;;;;;;;4967955;28;19925;-61
2022/11/17 02:29:12;;;;;;;;;;;;;;;;;;5003785;28;19924;-65
2022/11/17 02:31:39;;;;;;;;;;;;;;;;;;5001821;28;19948;-62
2022/11/17 02:34:05;;;;;;;;;;;;;;;;;;4964119;28;19974;-59
2022/11/17 02:36:31;;;;;;;;;;;;;;;;;;4966217;28;19917;-62
2022/11/17 02:38:56;;;;;;;;;;;;;;;;;;4969894;28;19925;-61
2022/11/17 02:41:22;;;;;;;;;;;;;;;;;;5003833;28;19917;-61
2022/11/17 02:44:05;;;;;;;;;;;;;;;;;;4964867;28;20180;-61
2022/11/17 02:46:30;;;;;;;;;;;;;;;;;;4974187;28;19932;-62
2022/11/17 02:48:58;;;;;;;;;;;;;;;;;;4980779;28;19921;-60
2022/11/17 02:51:24;;;;;;;;;;;;;;;;;;4978631;28;19926;-61
2022/11/17 02:53:50;;;;;;;;;;;;;;;;;;4982109;28;19964;-61
2022/11/17 02:56:17;;;;;;;;;;;;;;;;;;5004394;28;19929;-63
2022/11/17 02:58:45;;;;;;;;;;;;;;;;;;4981891;28;19921;-60
2022/11/17 03:01:11;;;;;;;;;;;;;;;;;;5000835;28;20331;-61
2022/11/17 03:03:36;;;;;;;;;;;;;;;;;;4980845;28;20379;-62
2022/11/17 03:06:01;;;;;;;;;;;;;;;;;;4978492;28;20006;-59
2022/11/17 03:08:26;;;;;;;;;;;;;;;;;;4983105;28;21486;-61
2022/11/17 03:10:52;;;;;;;;;;;;;;;;;;4969474;28;19921;-63
2022/11/17 03:13:17;;;;;;;;;;;;;;;;;;4998349;28;19921;-61
2022/11/17 03:15:43;;;;;;;;;;;;;;;;;;4966961;28;20008;-62
2022/11/17 03:18:08;;;;;;;;;;;;;;;;;;5000250;28;20261;-61
2022/11/17 03:20:33;;;;;;;;;;;;;;;;;;4999723;28;20601;-59
2022/11/17 03:23:01;;;;;;;;;;;;;;;;;;4982217;28;20087;-62
2022/11/17 03:25:29;;;;;;;;;;;;;;;;;;4983934;28;19916;-59
2022/11/17 03:27:56;;;;;;;;;;;;;;;;;;5000629;28;19947;-60
2022/11/17 03:30:24;;;;;;;;;;;;;;;;;;5001555;28;19921;-60
2022/11/17 03:32:50;;;;;;;;;;;;;;;;;;5001304;28;19921;-61
2022/11/17 03:35:15;;;;;;;;;;;;;;;;;;4978739;28;19979;-61
2022/11/17 03:37:41;;;;;;;;;;;;;;;;;;4982927;28;19925;-61
2022/11/17 03:40:09;;;;;;;;;;;;;;;;;;4980550;28;19920;-60
2022/11/17 03:42:34;;;;;;;;;;;;;;;;;;4981874;28;20009;-61
2022/11/17 03:45:00;;;;;;;;;;;;;;;;;;5002384;28;19921;-60
2022/11/17 03:47:25;;;;;;;;;;;;;;;;;;4980433;28;19971;-60
2022/11/17 03:49:50;;;;;;;;;;;;;;;;;;5000440;28;20383;-59
2022/11/17 03:52:21;;;;;;;;;;;;;;;;;;4981945;28;20356;-60
2022/11/17 03:54:46;;;;;;;;;;;;;;;;;;5000724;28;19960;-61
2022/11/17 03:57:11;;;;;;;;;;;;;;;;;;4968132;28;20000;-63
2022/11/17 03:59:37;;;;;;;;;;;;;;;;;;4989536;28;19921;-61
2022/11/17 04:02:02;;;;;;;;;;;;;;;;;;4977939;28;20288;-60
2022/11/17 04:05:04;;;;;;;;;;;;;;;;;;4980118;28;19924;-59
2022/11/17 04:07:15;;;;;;;;;;;;;;;;;;4998404;28;19929;-61
2022/11/17 04:09:45;;;;;;;;;;;;;;;;;;4980451;28;19917;-61
2022/11/17 04:17:42;;;;;;;;;;;;;;;;;;4980212;28;20490;-61
2022/11/17 04:20:09;;;;;;;;;;;;;;;;;;5003413;28;19928;-62
2022/11/17 04:22:37;;;;;;;;;;;;;;;;;;4981212;28;19940;-60
2022/11/17 04:25:02;;;;;;;;;;;;;;;;;;4979175;28;19925;-59
2022/11/17 04:30:17;;;;;;;;;;;;;;;;;;4997472;28;20004;-59
2022/11/17 04:32:43;;;;;;;;;;;;;;;;;;4996675;28;19967;-59
2022/11/17 04:35:09;;;;;;;;;;;;;;;;;;4998488;28;20135;-60
2022/11/17 04:37:36;;;;;;;;;;;;;;;;;;4997173;28;19964;-60
2022/11/17 04:40:02;;;;;;;;;;;;;;;;;;5000989;28;20305;-63
2022/11/17 04:42:27;;;;;;;;;;;;;;;;;;5000164;28;19947;-59
2022/11/17 04:44:56;;;;;;;;;;;;;;;;;;5000582;28;19991;-59
2022/11/17 04:47:21;;;;;;;;;;;;;;;;;;4981538;28;20608;-59
2022/11/17 04:49:46;;;;;;;;;;;;;;;;;;4981603;28;19917;-60
2022/11/17 04:52:12;;;;;;;;;;;;;;;;;;4981756;28;20364;-61
2022/11/17 04:54:37;;;;;;;;;;;;;;;;;;4982216;28;19932;-59
2022/11/17 04:57:02;;;;;;;;;;;;;;;;;;4983554;28;19921;-61
2022/11/17 04:59:30;;;;;;;;;;;;;;;;;;4982092;28;20036;-61
2022/11/17 05:01:58;;;;;;;;;;;;;;;;;;4978979;28;19925;-61
2022/11/17 05:05:06;;;;;;;;;;;;;;;;;;4958918;28;20015;-61
2022/11/17 05:07:12;;;;;;;;;;;;;;;;;;4985126;28;20332;-61
2022/11/17 05:09:40;;;;;;;;;;;;;;;;;;4999854;28;20048;-60
2022/11/17 05:14:52;;;;;;;;;;;;;;;;;;4999673;28;20168;-60
2022/11/17 05:17:22;;;;;;;;;;;;;;;;;;4981778;28;20952;-60
2022/11/17 05:19:48;;;;;;;;;;;;;;;;;;4979459;28;19957;-59
2022/11/17 05:24:57;;;;;;;;;;;;;;;;;;4981119;28;19974;-61
2022/11/17 05:27:25;;;;;;;;;;;;;;;;;;4979116;28;20404;-61
2022/11/17 05:29:50;;;;;;;;;;;;;;;;;;4984142;28;19932;-60
2022/11/17 05:32:16;;;;;;;;;;;;;;;;;;4998612;28;19960;-61
2022/11/17 05:34:44;;;;;;;;;;;;;;;;;;4982150;28;19933;-60
2022/11/17 05:37:11;;;;;;;;;;;;;;;;;;4967698;28;20426;-61
2022/11/17 05:39:39;;;;;;;;;;;;;;;;;;5000667;28;19936;-62
2022/11/17 05:42:06;;;;;;;;;;;;;;;;;;4979217;28;20075;-59
2022/11/17 05:44:35;;;;;;;;;;;;;;;;;;5007168;28;20343;-60
2022/11/17 05:47:03;;;;;;;;;;;;;;;;;;4984806;28;19968;-59
2022/11/17 05:49:28;;;;;;;;;;;;;;;;;;4983132;28;20027;-62
2022/11/17 05:51:56;;;;;;;;;;;;;;;;;;4984129;28;19921;-62
2022/11/17 05:54:25;;;;;;;;;;;;;;;;;;4999789;28;20821;-60
2022/11/17 05:56:50;;;;;;;;;;;;;;;;;;4985272;28;21457;-61
2022/11/17 05:59:37;;;;;;;;;;;;;;;;;;4979180;28;19921;-61
2022/11/17 06:02:02;;;;;;;;;;;;;;;;;;5002173;28;19996;-62
2022/11/17 06:04:27;;;;;;;;;;;;;;;;;;4964382;28;20577;-62
2022/11/17 06:06:58;;;;;;;;;;;;;;;;;;4984715;28;19940;-62
2022/11/17 06:09:23;;;;;;;;;;;;;;;;;;4970084;28;19920;-61
2022/11/17 06:11:48;;;;;;;;;;;;;;;;;;4970558;28;19921;-61
2022/11/17 06:14:13;;;;;;;;;;;;;;;;;;4986174;28;20400;-61
2022/11/17 06:16:39;;;;;;;;;;;;;;;;;;4966747;28;19961;-62
2022/11/17 06:19:04;;;;;;;;;;;;;;;;;;4988350;28;19925;-61
2022/11/17 06:21:32;;;;;;;;;;;;;;;;;;4968012;28;20396;-62
2022/11/17 06:23:59;;;;;;;;;;;;;;;;;;5002218;28;19932;-61
2022/11/17 06:26:24;;;;;;;;;;;;;;;;;;5001648;28;20519;-60
2022/11/17 06:28:52;;;;;;;;;;;;;;;;;;4987273;28;19929;-63
2022/11/17 06:31:17;;;;;;;;;;;;;;;;;;5001050;28;20249;-61
2022/11/17 06:33:46;;;;;;;;;;;;;;;;;;5005938;28;19917;-62
2022/11/17 06:36:13;;;;;;;;;;;;;;;;;;5002980;28;19936;-61
2022/11/17 06:38:39;;;;;;;;;;;;;;;;;;4998905;28;19921;-60
2022/11/17 06:41:05;;;;;;;;;;;;;;;;;;4965647;28;20372;-60
2022/11/17 06:43:32;;;;;;;;;;;;;;;;;;4986280;28;19921;-60
2022/11/17 06:46:01;;;;;;;;;;;;;;;;;;5004046;28;19917;-59
2022/11/17 06:48:26;;;;;;;;;;;;;;;;;;5003869;28;19925;-60
2022/11/17 06:50:54;;;;;;;;;;;;;;;;;;5003226;28;20398;-61
2022/11/17 06:53:25;;;;;;;;;;;;;;;;;;4998926;28;19963;-60
2022/11/17 06:55:58;;;;;;;;;;;;;;;;;;4984643;28;19921;-61
2022/11/17 06:58:23;;;;;;;;;;;;;;;;;;4999432;28;20420;-61
2022/11/17 07:00:48;;;;;;;;;;;;;;;;;;4980975;28;19971;-61
2022/11/17 07:03:14;;;;;;;;;;;;;;;;;;4983505;28;20376;-61
2022/11/17 07:05:39;;;;;;;;;;;;;;;;;;4982714;28;19920;-62
2022/11/17 07:08:05;;;;;;;;;;;;;;;;;;5003643;28;20416;-62
2022/11/17 07:10:33;;;;;;;;;;;;;;;;;;4981983;28;20032;-60
2022/11/17 07:13:01;;;;;;;;;;;;;;;;;;4983497;28;19921;-60
2022/11/17 07:15:27;;;;;;;;;;;;;;;;;;4984575;28;19932;-60
2022/11/17 07:17:59;;;;;;;;;;;;;;;;;;4982346;28;19917;-60
2022/11/17 07:20:25;;;;;;;;;;;;;;;;;;4999368;28;19987;-61
2022/11/17 07:22:50;;;;;;;;;;;;;;;;;;4980000;28;20015;-59
2022/11/17 07:25:18;;;;;;;;;;;;;;;;;;5001136;28;19921;-62
2022/11/17 07:27:47;;;;;;;;;;;;;;;;;;4985960;28;19931;-59
2022/11/17 07:30:13;;;;;;;;;;;;;;;;;;5000831;28;20617;-62
2022/11/17 07:32:38;;;;;;;;;;;;;;;;;;4967213;28;19917;-59
2022/11/17 07:35:05;;;;;;;;;;;;;;;;;;4967839;28;20376;-59
2022/11/17 07:37:32;;;;;;;;;;;;;;;;;;4985034;28;19932;-60
2022/11/17 07:39:57;;;;;;;;;;;;;;;;;;4999183;28;19917;-61
2022/11/17 07:42:25;;;;;;;;;;;;;;;;;;4980997;28;19928;-60
2022/11/17 07:44:55;;;;;;;;;;;;;;;;;;5001626;28;19971;-61
2022/11/17 07:47:23;;;;;;;;;;;;;;;;;;4982319;28;19936;-59
2022/11/17 07:49:51;;;;;;;;;;;;;;;;;;5002947;28;21473;-60
2022/11/17 07:52:17;;;;;;;;;;;;;;;;;;4998914;28;19921;-58
2022/11/17 07:54:44;;;;;;;;;;;;;;;;;;4983435;28;19921;-61
2022/11/17 07:57:10;;;;;;;;;;;;;;;;;;4982488;28;19929;-60
2022/11/17 07:59:36;;;;;;;;;;;;;;;;;;4981224;28;19925;-62
2022/11/17 08:02:03;;;;;;;;;;;;;;;;;;4979958;28;19921;-61
2022/11/17 08:04:28;;;;;;;;;;;;;;;;;;5001734;28;20296;-59
2022/11/17 08:06:54;;;;;;;;;;;;;;;;;;4998519;28;19921;-57
2022/11/17 08:09:22;;;;;;;;;;;;;;;;;;5001365;28;19964;-63
2022/11/17 08:11:48;;;;;;;;;;;;;;;;;;4976093;28;20352;-60
2022/11/17 08:14:16;;;;;;;;;;;;;;;;;;5002008;28;20507;-58
2022/11/17 08:16:44;;;;;;;;;;;;;;;;;;4979983;28;19928;-60
2022/11/17 08:19:10;;;;;;;;;;;;;;;;;;4968663;28;19932;-60
2022/11/17 08:21:36;;;;;;;;;;;;;;;;;;4978859;28;19929;-60
2022/11/17 08:24:01;;;;;;;;;;;;;;;;;;4981794;28;20243;-59
2022/11/17 08:26:26;;;;;;;;;;;;;;;;;;5002018;28;19925;-60
2022/11/17 08:28:52;;;;;;;;;;;;;;;;;;4990601;28;19917;-61
2022/11/17 08:31:20;;;;;;;;;;;;;;;;;;4979746;28;20429;-61
2022/11/17 08:33:45;;;;;;;;;;;;;;;;;;5002464;28;19921;-59
2022/11/17 08:36:11;;;;;;;;;;;;;;;;;;4977446;28;19921;-59
2022/11/17 08:38:37;;;;;;;;;;;;;;;;;;4982147;28;20010;-59
2022/11/17 08:41:02;;;;;;;;;;;;;;;;;;4978528;28;19952;-59
2022/11/17 08:43:28;;;;;;;;;;;;;;;;;;4963074;28;20004;-60
2022/11/17 08:45:53;;;;;;;;;;;;;;;;;;4980655;28;20434;-60
2022/11/17 08:48:20;;;;;;;;;;;;;;;;;;4977379;28;20249;-58
2022/11/17 08:50:46;;;;;;;;;;;;;;;;;;4999577;28;19960;-59
2022/11/17 08:53:12;;;;;;;;;;;;;;;;;;4979413;28;20079;-61
2022/11/17 08:55:39;;;;;;;;;;;;;;;;;;4983194;28;19921;-59
2022/11/17 08:58:07;;;;;;;;;;;;;;;;;;4980654;28;19925;-60
2022/11/17 09:00:36;;;;;;;;;;;;;;;;;;5001712;28;19982;-60
2022/11/17 09:03:04;;;;;;;;;;;;;;;;;;5000450;28;20349;-59
2022/11/17 09:05:29;;;;;;;;;;;;;;;;;;4980980;28;19917;-58
2022/11/17 09:07:57;;;;;;;;;;;;;;;;;;4978046;28;19926;-58
2022/11/17 09:10:22;;;;;;;;;;;;;;;;;;5002388;28;19971;-59
2022/11/17 09:12:50;;;;;;;;;;;;;;;;;;4980379;28;20003;-61
2022/11/17 09:15:17;;;;;;;;;;;;;;;;;;5000489;28;19927;-60
2022/11/17 09:17:46;;;;;;;;;;;;;;;;;;4978065;28;19921;-58
2022/11/17 09:20:22;;;;;;;;;;;;;;;;;;4986816;28;20423;-60
2022/11/17 09:22:50;;;;;;;;;;;;;;;;;;4964100;28;20074;-61
2022/11/17 09:25:15;;;;;;;;;;;;;;;;;;4953220;28;19929;-61
2022/11/17 09:27:41;;;;;;;;;;;;;;;;;;4963947;28;20904;-60
2022/11/17 09:30:06;;;;;;;;;;;;;;;;;;4967518;28;20372;-62
2022/11/17 09:32:34;;;;;;;;;;;;;;;;;;4964247;28;20190;-61
2022/11/17 09:35:02;;;;;;;;;;;;;;;;;;4951297;28;19921;-61
2022/11/17 09:37:46;;;;;;;;;;;;;;;;;;4983464;28;20226;-61
2022/11/17 09:40:11;;;;;;;;;;;;;;;;;;4966305;28;20282;-62
2022/11/17 09:42:36;;;;;;;;;;;;;;;;;;4965798;28;20060;-61
2022/11/17 09:45:04;;;;;;;;;;;;;;;;;;4964530;28;19926;-61
2022/11/17 09:47:32;;;;;;;;;;;;;;;;;;4964948;28;20044;-59
2022/11/17 09:50:02;;;;;;;;;;;;;;;;;;4970460;28;20778;-59
2022/11/17 09:52:27;;;;;;;;;;;;;;;;;;4982963;28;20025;-60
2022/11/17 09:54:53;;;;;;;;;;;;;;;;;;4963585;28;19940;-58
2022/11/17 09:57:23;;;;;;;;;;;;;;;;;;4985112;28;19928;-60
2022/11/17 09:59:49;;;;;;;;;;;;;;;;;;4947610;28;19932;-60
2022/11/17 10:02:14;;;;;;;;;;;;;;;;;;4982685;28;19922;-61
2022/11/17 10:04:40;;;;;;;;;;;;;;;;;;4966113;28;20557;-60
2022/11/17 10:07:05;;;;;;;;;;;;;;;;;;4947949;28;19927;-60
2022/11/17 10:09:34;;;;;;;;;;;;;;;;;;4983410;28;20160;-59
2022/11/17 10:11:59;;;;;;;;;;;;;;;;;;4966162;28;20581;-60
2022/11/17 10:14:25;;;;;;;;;;;;;;;;;;4964430;28;19921;-60
2022/11/17 10:16:53;;;;;;;;;;;;;;;;;;4949000;28;19917;-61
2022/11/17 10:19:18;;;;;;;;;;;;;;;;;;4981730;28;22084;-60
2022/11/17 10:21:44;;;;;;;;;;;;;;;;;;4995702;28;19990;-61
2022/11/17 10:24:10;;;;;;;;;;;;;;;;;;4983109;28;19921;-62
2022/11/17 10:26:35;;;;;;;;;;;;;;;;;;4981270;28;20522;-61
2022/11/17 10:29:03;;;;;;;;;;;;;;;;;;4983337;28;19939;-62
2022/11/17 10:31:28;;;;;;;;;;;;;;;;;;5001380;28;19921;-62
2022/11/17 10:33:55;;;;;;;;;;;;;;;;;;5000657;28;19921;-60
2022/11/17 10:36:23;;;;;;;;;;;;;;;;;;5003020;28;20281;-60
2022/11/17 10:38:49;;;;;;;;;;;;;;;;;;5002955;28;19943;-59
2022/11/17 10:41:14;;;;;;;;;;;;;;;;;;4968541;28;20380;-62
2022/11/17 10:43:41;;;;;;;;;;;;;;;;;;5000387;28;21285;-60
2022/11/17 10:46:06;;;;;;;;;;;;;;;;;;5004192;28;19932;-61
2022/11/17 10:48:32;;;;;;;;;;;;;;;;;;4983038;28;19925;-61
2022/11/17 10:50:57;;;;;;;;;;;;;;;;;;4965613;28;20028;-61
2022/11/17 10:53:22;;;;;;;;;;;;;;;;;;4982079;28;19971;-59
2022/11/17 10:55:48;;;;;;;;;;;;;;;;;;4999412;28;19917;-59
2022/11/17 10:58:13;;;;;;;;;;;;;;;;;;5000830;28;21495;-61
2022/11/17 11:00:42;;;;;;;;;;;;;;;;;;4983505;28;19970;-60
2022/11/17 11:03:12;;;;;;;;;;;;;;;;;;4984777;28;20434;-61
2022/11/17 11:05:37;;;;;;;;;;;;;;;;;;5002808;28;19928;-58
2022/11/17 11:08:05;;;;;;;;;;;;;;;;;;5002627;28;19925;-60
2022/11/17 11:10:30;;;;;;;;;;;;;;;;;;4979252;28;20040;-61
2022/11/17 11:12:58;;;;;;;;;;;;;;;;;;4982928;28;19928;-61
2022/11/17 11:15:23;;;;;;;;;;;;;;;;;;4984606;28;20565;-61
2022/11/17 11:17:51;;;;;;;;;;;;;;;;;;4961126;28;20072;-60
2022/11/17 11:20:18;;;;;;;;;;;;;;;;;;5000354;28;19921;-61
2022/11/17 11:22:44;;;;;;;;;;;;;;;;;;5000013;28;21388;-61
2022/11/17 11:25:10;;;;;;;;;;;;;;;;;;4978760;28;19941;-60
2022/11/17 11:27:35;;;;;;;;;;;;;;;;;;5003248;28;19928;-62
2022/11/17 11:30:00;;;;;;;;;;;;;;;;;;5003354;28;20032;-62
2022/11/17 11:32:26;;;;;;;;;;;;;;;;;;4986481;28;19925;-61
2022/11/17 11:34:55;;;;;;;;;;;;;;;;;;5000811;28;19921;-60
2022/11/17 11:37:23;;;;;;;;;;;;;;;;;;5000896;28;20032;-60
2022/11/17 11:39:48;;;;;;;;;;;;;;;;;;4980029;28;19921;-61
2022/11/17 11:42:16;;;;;;;;;;;;;;;;;;5000952;28;19925;-60
2022/11/17 11:44:44;;;;;;;;;;;;;;;;;;4997467;28;20027;-60
2022/11/17 11:47:09;;;;;;;;;;;;;;;;;;4997780;28;19929;-61
2022/11/17 11:49:34;;;;;;;;;;;;;;;;;;5002866;28;20524;-64
2022/11/17 11:52:02;;;;;;;;;;;;;;;;;;4977114;28;19921;-61
2022/11/17 11:54:27;;;;;;;;;;;;;;;;;;4983840;28;20368;-62
2022/11/17 11:56:53;;;;;;;;;;;;;;;;;;4999582;28;19917;-61
2022/11/17 11:59:24;;;;;;;;;;;;;;;;;;5017369;27;1983547;-60
2022/11/17 12:01:50;;;;;;;;;;;;;;;;;;5061140;28;20187;-61
2022/11/17 12:04:18;;;;;;;;;;;;;;;;;;5060654;28;19926;-58
2022/11/17 12:06:43;;;;;;;;;;;;;;;;;;5077135;28;19920;-59
2022/11/17 12:09:10;;;;;;;;;;;;;;;;;;5058770;28;20316;-59
2022/11/17 12:14:25;;;;;;;;;;;;;;;;;;5076747;28;19920;-58
2022/11/17 12:16:50;;;;;;;;;;;;;;;;;;5061524;28;20462;-62
2022/11/17 12:19:16;;;;;;;;;;;;;;;;;;5079048;28;19924;-59
2022/11/17 12:21:43;;;;;;;;;;;;;;;;;;5058152;28;19920;-60
2022/11/17 12:24:14;;;;;;;;;;;;;;;;;;5061218;28;20666;-60
2022/11/17 12:26:44;;;;;;;;;;;;;;;;;;5076611;28;19920;-59
2022/11/17 12:29:10;;;;;;;;;;;;;;;;;;5060510;28;19974;-61
2022/11/17 12:31:38;;;;;;;;;;;;;;;;;;5073608;28;20393;-61
2022/11/17 12:34:03;;;;;;;;;;;;;;;;;;5047191;28;19924;-60
2022/11/17 12:36:30;;;;;;;;;;;;;;;;;;5074838;28;21540;-59
2022/11/17 12:38:55;;;;;;;;;;;;;;;;;;5068534;28;19931;-62
2022/11/17 12:41:21;;;;;;;;;;;;;;;;;;5068078;28;19969;-61
2022/11/17 12:43:47;;;;;;;;;;;;;;;;;;5067189;28;19925;-59
2022/11/17 12:46:12;;;;;;;;;;;;;;;;;;5068867;28;19920;-59
2022/11/17 12:48:40;;;;;;;;;;;;;;;;;;5067648;28;20012;-60
2022/11/17 12:51:08;;;;;;;;;;;;;;;;;;5066385;28;19967;-60
2022/11/17 12:53:36;;;;;;;;;;;;;;;;;;5047641;28;19946;-62
2022/11/17 12:56:01;;;;;;;;;;;;;;;;;;5048211;28;20530;-60
2022/11/17 12:58:27;;;;;;;;;;;;;;;;;;5046372;28;20208;-60
2022/11/17 13:00:53;;;;;;;;;;;;;;;;;;5068083;28;19923;-62
2022/11/17 13:03:18;;;;;;;;;;;;;;;;;;5037990;28;20511;-61
2022/11/17 13:05:46;;;;;;;;;;;;;;;;;;5050834;28;19920;-61
2022/11/17 13:08:11;;;;;;;;;;;;;;;;;;5049172;28;20367;-62
2022/11/17 13:10:40;;;;;;;;;;;;;;;;;;5037794;28;20174;-61
2022/11/17 13:13:05;;;;;;;;;;;;;;;;;;5035420;28;20421;-62
2022/11/17 13:15:34;;;;;;;;;;;;;;;;;;5034468;28;19999;-60
2022/11/17 13:18:01;;;;;;;;;;;;;;;;;;5033367;28;19928;-61
2022/11/17 13:20:27;;;;;;;;;;;;;;;;;;5035884;28;20363;-62
2022/11/17 13:22:53;;;;;;;;;;;;;;;;;;5049381;28;19931;-60
2022/11/17 13:25:18;;;;;;;;;;;;;;;;;;5029629;28;19923;-63
2022/11/17 13:27:43;;;;;;;;;;;;;;;;;;5021188;28;20437;-63
2022/11/17 13:30:11;;;;;;;;;;;;;;;;;;5025847;28;20391;-62
2022/11/17 13:32:36;;;;;;;;;;;;;;;;;;5020598;28;19931;-63
2022/11/17 13:35:02;;;;;;;;;;;;;;;;;;5049126;28;19920;-60
2022/11/17 13:37:27;;;;;;;;;;;;;;;;;;5025654;28;19935;-60
2022/11/17 13:39:55;;;;;;;;;;;;;;;;;;5051550;28;19916;-59
2022/11/17 13:42:23;;;;;;;;;;;;;;;;;;5049056;28;20341;-60
2022/11/17 13:44:48;;;;;;;;;;;;;;;;;;5049224;28;19920;-62
2022/11/17 13:47:16;;;;;;;;;;;;;;;;;;5053752;28;20003;-60
2022/11/17 13:49:41;;;;;;;;;;;;;;;;;;5033601;28;19926;-62
2022/11/17 13:52:07;;;;;;;;;;;;;;;;;;5030502;28;19924;-62
2022/11/17 13:54:32;;;;;;;;;;;;;;;;;;5053185;28;19924;-62
2022/11/17 13:56:58;;;;;;;;;;;;;;;;;;5042772;28;19952;-61
2022/11/17 13:59:23;;;;;;;;;;;;;;;;;;5047829;28;20410;-61
2022/11/17 14:01:50;;;;;;;;;;;;;;;;;;5048163;28;19916;-62
2022/11/17 14:04:20;;;;;;;;;;;;;;;;;;5028588;28;21532;-60
2022/11/17 14:06:45;;;;;;;;;;;;;;;;;;5027388;28;20421;-62
2022/11/17 14:09:13;;;;;;;;;;;;;;;;;;5022448;28;20007;-61
2022/11/17 14:11:41;;;;;;;;;;;;;;;;;;5039328;28;19931;-62
2022/11/17 14:14:06;;;;;;;;;;;;;;;;;;5020858;28;21974;-60
2022/11/17 14:16:31;;;;;;;;;;;;;;;;;;5046892;28;19920;-61
2022/11/17 14:18:56;;;;;;;;;;;;;;;;;;5035097;28;19939;-60
2022/11/17 14:21:22;;;;;;;;;;;;;;;;;;5026612;28;19997;-62
2022/11/17 14:23:47;;;;;;;;;;;;;;;;;;5034859;28;19913;-60
2022/11/17 14:26:15;;;;;;;;;;;;;;;;;;5032133;28;19925;-59
2022/11/17 14:28:43;;;;;;;;;;;;;;;;;;5033075;28;19927;-60
2022/11/17 14:31:08;;;;;;;;;;;;;;;;;;5032109;28;20025;-60
2022/11/17 14:33:38;;;;;;;;;;;;;;;;;;5011206;28;20010;-60
2022/11/17 14:36:04;;;;;;;;;;;;;;;;;;5011744;28;21605;-61
2022/11/17 14:38:30;;;;;;;;;;;;;;;;;;5019287;28;20271;-60
2022/11/17 14:40:55;;;;;;;;;;;;;;;;;;5017109;28;19942;-60
2022/11/17 14:43:20;;;;;;;;;;;;;;;;;;5032773;28;20011;-62
2022/11/17 14:45:45;;;;;;;;;;;;;;;;;;5052720;28;20210;-61
2022/11/17 14:48:13;;;;;;;;;;;;;;;;;;5046904;28;20054;-59
2022/11/17 14:50:39;;;;;;;;;;;;;;;;;;5029985;28;20000;-61
2022/11/17 14:53:04;;;;;;;;;;;;;;;;;;5021350;28;20424;-61
2022/11/17 14:55:29;;;;;;;;;;;;;;;;;;5022004;28;19920;-60
2022/11/17 14:57:57;;;;;;;;;;;;;;;;;;5029556;28;20370;-61
2022/11/17 15:00:26;;;;;;;;;;;;;;;;;;5031556;28;19960;-60
2022/11/17 15:02:51;;;;;;;;;;;;;;;;;;5019646;28;19921;-61
2022/11/17 15:05:22;;;;;;;;;;;;;;;;;;5030970;28;20482;-62
2022/11/17 15:07:47;;;;;;;;;;;;;;;;;;5025010;28;19979;-59
2022/11/17 15:10:17;;;;;;;;;;;;;;;;;;5031562;28;19956;-60
2022/11/17 15:12:43;;;;;;;;;;;;;;;;;;5030473;28;20544;-61
2022/11/17 15:15:08;;;;;;;;;;;;;;;;;;5027980;28;19921;-63
2022/11/17 15:17:33;;;;;;;;;;;;;;;;;;5010545;28;19954;-61
2022/11/17 15:19:59;;;;;;;;;;;;;;;;;;5020993;28;19924;-61
2022/11/17 15:22:27;;;;;;;;;;;;;;;;;;5008902;28;19925;-60
2022/11/17 15:24:55;;;;;;;;;;;;;;;;;;5025578;28;20011;-60
2022/11/17 15:27:20;;;;;;;;;;;;;;;;;;5007775;28;19920;-60
2022/11/17 15:29:48;;;;;;;;;;;;;;;;;;5031482;28;20157;-60
2022/11/17 15:32:13;;;;;;;;;;;;;;;;;;5015244;28;20665;-60
2022/11/17 15:34:38;;;;;;;;;;;;;;;;;;5032213;28;20463;-59
2022/11/17 15:37:04;;;;;;;;;;;;;;;;;;5026703;28;19923;-59
2022/11/17 15:39:29;;;;;;;;;;;;;;;;;;5020651;28;20840;-60
2022/11/17 15:41:54;;;;;;;;;;;;;;;;;;5024872;28;20420;-61
2022/11/17 15:44:23;;;;;;;;;;;;;;;;;;5006769;28;19948;-60
2022/11/17 15:46:51;;;;;;;;;;;;;;;;;;5025272;28;20047;-60
2022/11/17 15:49:16;;;;;;;;;;;;;;;;;;5024262;28;19924;-60
2022/11/17 16:11:32;;;;;;;;;;;;;;;;;;5028087;28;20027;-60
2022/11/17 16:13:58;;;;;;;;;;;;;;;;;;5048797;28;20106;-60
2022/11/17 16:19:14;;;;;;;;;;;;;;;;;;5026264;28;19955;-61
2022/11/17 16:21:39;;;;;;;;;;;;;;;;;;5045976;28;19966;-61
2022/11/17 16:24:06;;;;;;;;;;;;;;;;;;5014019;28;19946;-60
2022/11/17 16:29:54;;;;;;;;;;;;;;;;;;4980614;28;20606;-60
2022/11/17 16:32:19;;;;;;;;;;;;;;;;;;5038657;28;20086;-59
2022/11/17 16:34:47;;;;;;;;;;;;;;;;;;5015139;28;19921;-64
2022/11/17 16:37:14;;;;;;;;;;;;;;;;;;5008296;28;19964;-60
2022/11/17 16:40:00;;;;;;;;;;;;;;;;;;4970182;28;20113;-61
2022/11/17 16:42:26;;;;;;;;;;;;;;;;;;4936684;28;20182;-60
2022/11/17 16:48:42;;;;;;;;;;;;;;;;;;4890533;29;19926;-59
2022/11/17 16:51:20;;;;;;;;;;;;;;;;;;4885814;29;19922;-60
2022/11/17 16:54:07;;;;;;;;;;;;;;;;;;4878889;29;19923;-59
2022/11/17 16:56:35;;;;;;;;;;;;;;;;;;4939924;28;19949;-60
2022/11/17 16:59:00;;;;;;;;;;;;;;;;;;4945098;28;19983;-59
2022/11/17 17:01:25;;;;;;;;;;;;;;;;;;4962652;28;19930;-59
2022/11/17 17:03:53;;;;;;;;;;;;;;;;;;4964378;28;20111;-60
2022/11/17 17:06:20;;;;;;;;;;;;;;;;;;4981284;28;20025;-59
2022/11/17 17:08:46;;;;;;;;;;;;;;;;;;4972192;28;19925;-60
2022/11/17 17:11:11;;;;;;;;;;;;;;;;;;4978522;28;19931;-60
2022/11/17 17:13:39;;;;;;;;;;;;;;;;;;4962786;28;19921;-61
2022/11/17 17:16:06;;;;;;;;;;;;;;;;;;5001322;28;19921;-56
2022/11/17 17:18:32;;;;;;;;;;;;;;;;;;5038516;28;19931;-60
2022/11/17 17:20:57;;;;;;;;;;;;;;;;;;5044951;28;19978;-60
2022/11/17 17:23:23;;;;;;;;;;;;;;;;;;5054360;28;19984;-60
2022/11/17 17:25:51;;;;;;;;;;;;;;;;;;5032072;28;19916;-62
2022/11/17 17:28:19;;;;;;;;;;;;;;;;;;5055421;28;19974;-61
2022/11/17 17:30:44;;;;;;;;;;;;;;;;;;5024262;28;19920;-60
2022/11/17 17:33:09;;;;;;;;;;;;;;;;;;5052559;28;19932;-61
2022/11/17 17:35:35;;;;;;;;;;;;;;;;;;5034815;28;20471;-60
2022/11/17 17:38:03;;;;;;;;;;;;;;;;;;5037518;28;19920;-60